sensor_id;sensor_type;location;lat;lon;timestamp;temperature;humidity
39021;DHT22;25188;51.958;5.842;2023-12-20T00:01:20;6.60;99.90
39021;DHT22;25188;51.958;5.842;2023-12-20T00:03:46;6.60;99.90
39021;DHT22;25188;51.958;5.842;2023-12-20T00:06:12;6.60;99.90
39021;DHT22;25188;51.958;5.842;2023-12-20T00:08:37;6.70;99.90
39021;DHT22;25188;51.958;5.842;2023-12-20T00:11:06;6.70;99.90
39021;DHT22;25188;51.958;5.842;2023-12-20T00:13:32;6.70;99.90
39021;DHT22;25188;51.958;5.842;2023-12-20T00:15:57;6.70;99.90
39021;DHT22;25188;51.958;5.842;2023-12-20T00:18:23;6.70;99.90
39021;DHT22;25188;51.958;5.842;2023-12-20T00:20:49;6.60;99.90
39021;DHT22;25188;51.958;5.842;2023-12-20T00:23:15;6.60;99.90
39021;DHT22;25188;51.958;5.842;2023-12-20T00:25:40;6.60;99.90
39021;DHT22;25188;51.958;5.842;2023-12-20T00:28:06;6.60;99.90
39021;DHT22;25188;51.958;5.842;2023-12-20T00:30:32;6.60;99.90
39021;DHT22;25188;51.958;5.842;2023-12-20T00:32:58;6.60;99.90
39021;DHT22;25188;51.958;5.842;2023-12-20T00:35:23;6.50;99.90
39021;DHT22;25188;51.958;5.842;2023-12-20T00:37:49;6.50;99.90
39021;DHT22;25188;51.958;5.842;2023-12-20T00:40:15;6.50;99.90
39021;DHT22;25188;51.958;5.842;2023-12-20T00:42:41;6.40;99.90
39021;DHT22;25188;51.958;5.842;2023-12-20T00:45:07;6.40;99.90
39021;DHT22;25188;51.958;5.842;2023-12-20T00:47:32;6.40;99.90
39021;DHT22;25188;51.958;5.842;2023-12-20T00:49:58;6.40;99.90
39021;DHT22;25188;51.958;5.842;2023-12-20T00:52:24;6.30;99.90
39021;DHT22;25188;51.958;5.842;2023-12-20T00:54:50;6.30;99.90
39021;DHT22;25188;51.958;5.842;2023-12-20T00:57:16;6.20;99.90
39021;DHT22;25188;51.958;5.842;2023-12-20T00:59:41;6.20;99.90
39021;DHT22;25188;51.958;5.842;2023-12-20T01:02:07;6.20;99.90
39021;DHT22;25188;51.958;5.842;2023-12-20T01:04:34;6.20;99.90
39021;DHT22;25188;51.958;5.842;2023-12-20T01:06:59;6.20;99.90
39021;DHT22;25188;51.958;5.842;2023-12-20T01:09:25;6.20;99.90
39021;DHT22;25188;51.958;5.842;2023-12-20T01:11:52;6.10;99.90
39021;DHT22;25188;51.958;5.842;2023-12-20T01:14:18;6.10;99.90
39021;DHT22;25188;51.958;5.842;2023-12-20T01:16:44;6.10;99.90
39021;DHT22;25188;51.958;5.842;2023-12-20T01:19:10;6.00;99.90
39021;DHT22;25188;51.958;5.842;2023-12-20T01:21:35;6.10;99.90
39021;DHT22;25188;51.958;5.842;2023-12-20T01:24:01;6.10;99.90
39021;DHT22;25188;51.958;5.842;2023-12-20T01:26:27;6.10;99.90
39021;DHT22;25188;51.958;5.842;2023-12-20T01:28:53;6.00;99.90
39021;DHT22;25188;51.958;5.842;2023-12-20T01:31:18;6.00;99.90
39021;DHT22;25188;51.958;5.842;2023-12-20T01:33:44;6.00;99.90
39021;DHT22;25188;51.958;5.842;2023-12-20T01:36:10;6.00;99.90
39021;DHT22;25188;51.958;5.842;2023-12-20T01:38:36;6.00;99.90
39021;DHT22;25188;51.958;5.842;2023-12-20T01:41:02;5.90;99.90
39021;DHT22;25188;51.958;5.842;2023-12-20T01:43:28;5.90;99.90
39021;DHT22;25188;51.958;5.842;2023-12-20T01:45:57;5.90;99.90
39021;DHT22;25188;51.958;5.842;2023-12-20T01:48:23;5.90;99.90
39021;DHT22;25188;51.958;5.842;2023-12-20T01:50:50;5.90;99.90
39021;DHT22;25188;51.958;5.842;2023-12-20T01:53:17;5.90;99.90
39021;DHT22;25188;51.958;5.842;2023-12-20T01:55:44;5.90;99.90
39021;DHT22;25188;51.958;5.842;2023-12-20T01:58:11;5.90;99.90
39021;DHT22;25188;51.958;5.842;2023-12-20T02:00:37;5.90;99.90
39021;DHT22;25188;51.958;5.842;2023-12-20T02:03:04;5.90;99.90
39021;DHT22;25188;51.958;5.842;2023-12-20T02:05:31;5.90;99.90
39021;DHT22;25188;51.958;5.842;2023-12-20T02:07:57;5.90;99.90
39021;DHT22;25188;51.958;5.842;2023-12-20T02:10:23;6.00;99.90
39021;DHT22;25188;51.958;5.842;2023-12-20T02:12:49;6.00;99.90
39021;DHT22;25188;51.958;5.842;2023-12-20T02:15:15;6.00;99.90
39021;DHT22;25188;51.958;5.842;2023-12-20T02:17:41;6.00;99.90
39021;DHT22;25188;51.958;5.842;2023-12-20T02:20:07;6.00;99.90
39021;DHT22;25188;51.958;5.842;2023-12-20T02:22:33;6.00;99.90
39021;DHT22;25188;51.958;5.842;2023-12-20T02:24:58;6.10;99.90
39021;DHT22;25188;51.958;5.842;2023-12-20T02:27:24;6.10;99.90
39021;DHT22;25188;51.958;5.842;2023-12-20T02:29:50;6.10;99.90
39021;DHT22;25188;51.958;5.842;2023-12-20T02:32:17;6.10;99.90
39021;DHT22;25188;51.958;5.842;2023-12-20T02:34:43;6.10;99.90
39021;DHT22;25188;51.958;5.842;2023-12-20T02:37:09;6.20;99.90
39021;DHT22;25188;51.958;5.842;2023-12-20T02:39:34;6.20;99.90
39021;DHT22;25188;51.958;5.842;2023-12-20T02:42:00;6.20;99.90
39021;DHT22;25188;51.958;5.842;2023-12-20T02:44:26;6.30;99.90
39021;DHT22;25188;51.958;5.842;2023-12-20T02:46:51;6.30;99.90
39021;DHT22;25188;51.958;5.842;2023-12-20T02:49:17;6.30;99.90
39021;DHT22;25188;51.958;5.842;2023-12-20T02:51:43;6.40;99.90
39021;DHT22;25188;51.958;5.842;2023-12-20T02:54:09;6.40;99.90
39021;DHT22;25188;51.958;5.842;2023-12-20T02:56:34;6.40;99.90
39021;DHT22;25188;51.958;5.842;2023-12-20T02:59:00;6.50;99.90
39021;DHT22;25188;51.958;5.842;2023-12-20T03:01:27;6.50;99.90
39021;DHT22;25188;51.958;5.842;2023-12-20T03:03:53;6.50;99.90
39021;DHT22;25188;51.958;5.842;2023-12-20T03:06:19;6.50;99.90
39021;DHT22;25188;51.958;5.842;2023-12-20T03:08:45;6.50;99.90
39021;DHT22;25188;51.958;5.842;2023-12-20T03:11:11;6.40;99.90
39021;DHT22;25188;51.958;5.842;2023-12-20T03:13:37;6.40;99.90
39021;DHT22;25188;51.958;5.842;2023-12-20T03:16:12;6.40;99.90
39021;DHT22;25188;51.958;5.842;2023-12-20T03:18:39;6.40;99.90
39021;DHT22;25188;51.958;5.842;2023-12-20T03:21:05;6.40;99.90
39021;DHT22;25188;51.958;5.842;2023-12-20T03:23:31;6.40;99.90
39021;DHT22;25188;51.958;5.842;2023-12-20T03:25:58;6.40;99.90
39021;DHT22;25188;51.958;5.842;2023-12-20T03:28:24;6.40;99.90
39021;DHT22;25188;51.958;5.842;2023-12-20T03:30:50;6.40;99.90
39021;DHT22;25188;51.958;5.842;2023-12-20T03:33:16;6.30;99.90
39021;DHT22;25188;51.958;5.842;2023-12-20T03:35:41;6.30;99.90
39021;DHT22;25188;51.958;5.842;2023-12-20T03:38:07;6.30;99.90
39021;DHT22;25188;51.958;5.842;2023-12-20T03:40:33;6.30;99.90
39021;DHT22;25188;51.958;5.842;2023-12-20T03:42:59;6.30;99.90
39021;DHT22;25188;51.958;5.842;2023-12-20T03:45:25;6.30;99.90
39021;DHT22;25188;51.958;5.842;2023-12-20T03:47:50;6.30;99.90
39021;DHT22;25188;51.958;5.842;2023-12-20T03:50:21;6.30;99.90
39021;DHT22;25188;51.958;5.842;2023-12-20T03:52:47;6.30;99.90
39021;DHT22;25188;51.958;5.842;2023-12-20T03:55:13;6.30;99.90
39021;DHT22;25188;51.958;5.842;2023-12-20T03:57:38;6.30;99.90
39021;DHT22;25188;51.958;5.842;2023-12-20T04:00:05;6.30;99.90
39021;DHT22;25188;51.958;5.842;2023-12-20T04:02:38;6.30;99.90
39021;DHT22;25188;51.958;5.842;2023-12-20T04:05:05;6.30;99.90
39021;DHT22;25188;51.958;5.842;2023-12-20T04:07:31;6.30;99.90
39021;DHT22;25188;51.958;5.842;2023-12-20T04:09:57;6.30;99.90
39021;DHT22;25188;51.958;5.842;2023-12-20T04:12:23;6.30;99.90
39021;DHT22;25188;51.958;5.842;2023-12-20T04:14:48;6.30;99.90
39021;DHT22;25188;51.958;5.842;2023-12-20T04:17:15;6.30;99.90
39021;DHT22;25188;51.958;5.842;2023-12-20T04:19:44;6.20;99.90
39021;DHT22;25188;51.958;5.842;2023-12-20T04:22:09;6.30;99.90
39021;DHT22;25188;51.958;5.842;2023-12-20T04:24:35;6.30;99.90
39021;DHT22;25188;51.958;5.842;2023-12-20T04:27:01;6.30;99.90
39021;DHT22;25188;51.958;5.842;2023-12-20T04:29:27;6.30;99.90
39021;DHT22;25188;51.958;5.842;2023-12-20T04:31:53;6.30;99.90
39021;DHT22;25188;51.958;5.842;2023-12-20T04:34:18;6.40;99.90
39021;DHT22;25188;51.958;5.842;2023-12-20T04:36:44;6.40;99.90
39021;DHT22;25188;51.958;5.842;2023-12-20T04:39:12;6.40;99.90
39021;DHT22;25188;51.958;5.842;2023-12-20T04:41:38;6.40;99.90
39021;DHT22;25188;51.958;5.842;2023-12-20T04:44:04;6.50;99.90
39021;DHT22;25188;51.958;5.842;2023-12-20T04:46:29;6.50;99.90
39021;DHT22;25188;51.958;5.842;2023-12-20T04:48:55;6.50;99.90
39021;DHT22;25188;51.958;5.842;2023-12-20T04:51:21;6.60;99.90
39021;DHT22;25188;51.958;5.842;2023-12-20T04:53:46;6.60;99.90
39021;DHT22;25188;51.958;5.842;2023-12-20T04:56:12;6.60;99.90
39021;DHT22;25188;51.958;5.842;2023-12-20T04:58:38;6.60;99.90
39021;DHT22;25188;51.958;5.842;2023-12-20T05:01:05;6.70;99.90
39021;DHT22;25188;51.958;5.842;2023-12-20T05:03:31;6.70;99.90
39021;DHT22;25188;51.958;5.842;2023-12-20T05:05:57;6.70;99.90
39021;DHT22;25188;51.958;5.842;2023-12-20T05:08:23;6.70;99.90
39021;DHT22;25188;51.958;5.842;2023-12-20T05:10:49;6.80;99.90
39021;DHT22;25188;51.958;5.842;2023-12-20T05:13:15;6.80;99.90
39021;DHT22;25188;51.958;5.842;2023-12-20T05:15:40;6.90;99.90
39021;DHT22;25188;51.958;5.842;2023-12-20T05:18:06;6.90;99.90
39021;DHT22;25188;51.958;5.842;2023-12-20T05:20:32;6.90;99.90
39021;DHT22;25188;51.958;5.842;2023-12-20T05:22:57;7.00;99.90
39021;DHT22;25188;51.958;5.842;2023-12-20T05:25:23;7.00;99.90
39021;DHT22;25188;51.958;5.842;2023-12-20T05:27:49;7.00;99.90
39021;DHT22;25188;51.958;5.842;2023-12-20T05:30:14;7.00;99.90
39021;DHT22;25188;51.958;5.842;2023-12-20T05:32:40;7.10;99.90
39021;DHT22;25188;51.958;5.842;2023-12-20T05:35:06;7.10;99.90
39021;DHT22;25188;51.958;5.842;2023-12-20T05:37:32;7.10;99.90
39021;DHT22;25188;51.958;5.842;2023-12-20T05:39:58;7.10;99.90
39021;DHT22;25188;51.958;5.842;2023-12-20T05:42:23;7.20;99.90
39021;DHT22;25188;51.958;5.842;2023-12-20T05:44:49;7.20;99.90
39021;DHT22;25188;51.958;5.842;2023-12-20T05:47:15;7.20;99.90
39021;DHT22;25188;51.958;5.842;2023-12-20T05:49:40;7.20;99.90
39021;DHT22;25188;51.958;5.842;2023-12-20T05:52:06;7.20;99.90
39021;DHT22;25188;51.958;5.842;2023-12-20T05:54:32;7.30;99.90
39021;DHT22;25188;51.958;5.842;2023-12-20T05:56:57;7.20;99.90
39021;DHT22;25188;51.958;5.842;2023-12-20T05:59:23;7.30;99.90
39021;DHT22;25188;51.958;5.842;2023-12-20T06:01:49;7.30;99.90
39021;DHT22;25188;51.958;5.842;2023-12-20T06:04:15;7.30;99.90
39021;DHT22;25188;51.958;5.842;2023-12-20T06:06:41;7.30;99.90
39021;DHT22;25188;51.958;5.842;2023-12-20T06:09:07;7.30;99.90
39021;DHT22;25188;51.958;5.842;2023-12-20T06:11:33;7.40;99.90
39021;DHT22;25188;51.958;5.842;2023-12-20T06:13:59;7.40;99.90
39021;DHT22;25188;51.958;5.842;2023-12-20T06:16:24;7.40;99.90
39021;DHT22;25188;51.958;5.842;2023-12-20T06:18:50;7.40;99.90
39021;DHT22;25188;51.958;5.842;2023-12-20T06:21:15;7.40;99.90
39021;DHT22;25188;51.958;5.842;2023-12-20T06:23:41;7.40;99.90
39021;DHT22;25188;51.958;5.842;2023-12-20T06:26:07;7.40;99.90
39021;DHT22;25188;51.958;5.842;2023-12-20T06:28:33;7.40;99.90
39021;DHT22;25188;51.958;5.842;2023-12-20T06:30:58;7.40;99.90
39021;DHT22;25188;51.958;5.842;2023-12-20T06:33:26;7.40;99.90
39021;DHT22;25188;51.958;5.842;2023-12-20T06:35:51;7.40;99.90
39021;DHT22;25188;51.958;5.842;2023-12-20T06:38:18;7.40;99.90
39021;DHT22;25188;51.958;5.842;2023-12-20T06:40:44;7.40;99.90
39021;DHT22;25188;51.958;5.842;2023-12-20T06:43:11;7.50;99.90
39021;DHT22;25188;51.958;5.842;2023-12-20T06:45:37;7.50;99.90
39021;DHT22;25188;51.958;5.842;2023-12-20T06:48:03;7.50;99.90
39021;DHT22;25188;51.958;5.842;2023-12-20T06:50:29;7.50;99.90
39021;DHT22;25188;51.958;5.842;2023-12-20T06:52:54;7.50;99.90
39021;DHT22;25188;51.958;5.842;2023-12-20T06:55:20;7.50;99.90
39021;DHT22;25188;51.958;5.842;2023-12-20T06:57:45;7.50;99.90
39021;DHT22;25188;51.958;5.842;2023-12-20T07:00:11;7.50;99.90
39021;DHT22;25188;51.958;5.842;2023-12-20T07:02:37;7.50;99.90
39021;DHT22;25188;51.958;5.842;2023-12-20T07:05:03;7.50;99.90
39021;DHT22;25188;51.958;5.842;2023-12-20T07:07:30;7.50;99.90
39021;DHT22;25188;51.958;5.842;2023-12-20T07:09:55;7.50;99.90
39021;DHT22;25188;51.958;5.842;2023-12-20T07:12:21;7.50;99.90
39021;DHT22;25188;51.958;5.842;2023-12-20T07:14:47;7.60;99.90
39021;DHT22;25188;51.958;5.842;2023-12-20T07:17:13;7.60;99.90
39021;DHT22;25188;51.958;5.842;2023-12-20T07:19:40;7.50;99.90
39021;DHT22;25188;51.958;5.842;2023-12-20T07:22:06;7.60;99.90
39021;DHT22;25188;51.958;5.842;2023-12-20T07:24:33;7.60;99.90
39021;DHT22;25188;51.958;5.842;2023-12-20T07:27:00;7.60;99.90
39021;DHT22;25188;51.958;5.842;2023-12-20T07:29:26;7.60;99.90
39021;DHT22;25188;51.958;5.842;2023-12-20T07:31:53;7.60;99.90
39021;DHT22;25188;51.958;5.842;2023-12-20T07:34:20;7.60;99.90
39021;DHT22;25188;51.958;5.842;2023-12-20T07:36:45;7.60;99.90
39021;DHT22;25188;51.958;5.842;2023-12-20T07:39:11;7.60;99.90
39021;DHT22;25188;51.958;5.842;2023-12-20T07:41:37;7.60;99.90
39021;DHT22;25188;51.958;5.842;2023-12-20T07:44:04;7.60;99.90
39021;DHT22;25188;51.958;5.842;2023-12-20T07:46:33;7.60;99.90
39021;DHT22;25188;51.958;5.842;2023-12-20T07:48:58;7.60;99.90
39021;DHT22;25188;51.958;5.842;2023-12-20T07:51:24;7.60;99.90
39021;DHT22;25188;51.958;5.842;2023-12-20T07:53:51;7.70;99.90
39021;DHT22;25188;51.958;5.842;2023-12-20T07:56:20;7.70;99.90
39021;DHT22;25188;51.958;5.842;2023-12-20T07:58:46;7.70;99.90
39021;DHT22;25188;51.958;5.842;2023-12-20T08:01:15;7.70;99.90
39021;DHT22;25188;51.958;5.842;2023-12-20T08:03:41;7.70;99.90
39021;DHT22;25188;51.958;5.842;2023-12-20T08:06:07;7.70;99.90
39021;DHT22;25188;51.958;5.842;2023-12-20T08:08:32;7.70;99.90
39021;DHT22;25188;51.958;5.842;2023-12-20T08:10:58;7.70;99.90
39021;DHT22;25188;51.958;5.842;2023-12-20T08:13:27;7.70;99.90
39021;DHT22;25188;51.958;5.842;2023-12-20T08:15:53;7.70;99.90
39021;DHT22;25188;51.958;5.842;2023-12-20T08:18:19;7.80;99.90
39021;DHT22;25188;51.958;5.842;2023-12-20T08:20:48;7.80;99.90
39021;DHT22;25188;51.958;5.842;2023-12-20T08:23:15;7.80;99.90
39021;DHT22;25188;51.958;5.842;2023-12-20T08:25:41;7.80;99.90
39021;DHT22;25188;51.958;5.842;2023-12-20T08:28:07;7.80;99.90
39021;DHT22;25188;51.958;5.842;2023-12-20T08:30:32;7.80;99.90
39021;DHT22;25188;51.958;5.842;2023-12-20T08:33:01;7.80;99.90
39021;DHT22;25188;51.958;5.842;2023-12-20T08:35:27;7.90;99.90
39021;DHT22;25188;51.958;5.842;2023-12-20T08:37:53;7.90;99.90
39021;DHT22;25188;51.958;5.842;2023-12-20T08:40:19;7.90;99.90
39021;DHT22;25188;51.958;5.842;2023-12-20T08:42:45;7.90;99.90
39021;DHT22;25188;51.958;5.842;2023-12-20T08:45:11;7.90;99.90
39021;DHT22;25188;51.958;5.842;2023-12-20T08:47:37;7.90;99.90
39021;DHT22;25188;51.958;5.842;2023-12-20T08:50:03;7.90;99.90
39021;DHT22;25188;51.958;5.842;2023-12-20T08:52:28;7.90;99.90
39021;DHT22;25188;51.958;5.842;2023-12-20T08:54:55;7.90;99.90
39021;DHT22;25188;51.958;5.842;2023-12-20T08:57:21;7.90;99.90
39021;DHT22;25188;51.958;5.842;2023-12-20T08:59:48;7.90;99.90
39021;DHT22;25188;51.958;5.842;2023-12-20T09:02:14;8.00;99.90
39021;DHT22;25188;51.958;5.842;2023-12-20T09:04:39;8.00;99.90
39021;DHT22;25188;51.958;5.842;2023-12-20T09:07:05;8.00;99.90
39021;DHT22;25188;51.958;5.842;2023-12-20T09:09:31;8.00;99.90
39021;DHT22;25188;51.958;5.842;2023-12-20T09:11:57;8.00;99.90
39021;DHT22;25188;51.958;5.842;2023-12-20T09:14:23;8.00;99.90
39021;DHT22;25188;51.958;5.842;2023-12-20T09:16:49;8.00;99.90
39021;DHT22;25188;51.958;5.842;2023-12-20T09:19:17;7.90;99.90
39021;DHT22;25188;51.958;5.842;2023-12-20T09:21:43;8.00;99.90
39021;DHT22;25188;51.958;5.842;2023-12-20T09:24:09;8.00;99.90
39021;DHT22;25188;51.958;5.842;2023-12-20T09:26:35;8.00;99.90
39021;DHT22;25188;51.958;5.842;2023-12-20T09:29:00;8.00;99.90
39021;DHT22;25188;51.958;5.842;2023-12-20T09:31:26;8.00;99.90
39021;DHT22;25188;51.958;5.842;2023-12-20T09:33:52;7.90;99.90
39021;DHT22;25188;51.958;5.842;2023-12-20T09:36:18;7.90;99.90
39021;DHT22;25188;51.958;5.842;2023-12-20T09:38:43;7.90;99.90
39021;DHT22;25188;51.958;5.842;2023-12-20T09:41:09;7.90;99.90
39021;DHT22;25188;51.958;5.842;2023-12-20T09:43:38;7.90;99.90
39021;DHT22;25188;51.958;5.842;2023-12-20T09:46:06;7.90;99.90
39021;DHT22;25188;51.958;5.842;2023-12-20T09:48:33;7.90;99.90
39021;DHT22;25188;51.958;5.842;2023-12-20T09:50:59;7.90;99.90
39021;DHT22;25188;51.958;5.842;2023-12-20T09:53:25;7.90;99.90
39021;DHT22;25188;51.958;5.842;2023-12-20T09:55:58;7.90;99.90
39021;DHT22;25188;51.958;5.842;2023-12-20T09:58:24;7.90;99.90
39021;DHT22;25188;51.958;5.842;2023-12-20T10:00:50;7.90;99.90
39021;DHT22;25188;51.958;5.842;2023-12-20T10:03:18;7.90;99.90
39021;DHT22;25188;51.958;5.842;2023-12-20T10:05:44;7.90;99.90
39021;DHT22;25188;51.958;5.842;2023-12-20T10:08:10;7.90;99.90
39021;DHT22;25188;51.958;5.842;2023-12-20T10:10:35;7.90;99.90
39021;DHT22;25188;51.958;5.842;2023-12-20T10:13:10;8.00;99.90
39021;DHT22;25188;51.958;5.842;2023-12-20T10:15:36;8.00;99.90
39021;DHT22;25188;51.958;5.842;2023-12-20T10:18:03;8.00;99.90
39021;DHT22;25188;51.958;5.842;2023-12-20T10:20:29;8.00;99.90
39021;DHT22;25188;51.958;5.842;2023-12-20T10:22:56;8.00;99.90
39021;DHT22;25188;51.958;5.842;2023-12-20T10:25:23;8.00;99.90
39021;DHT22;25188;51.958;5.842;2023-12-20T10:27:50;8.00;99.90
39021;DHT22;25188;51.958;5.842;2023-12-20T10:30:15;8.10;99.90
39021;DHT22;25188;51.958;5.842;2023-12-20T10:32:41;8.10;99.90
39021;DHT22;25188;51.958;5.842;2023-12-20T10:35:08;8.10;99.90
39021;DHT22;25188;51.958;5.842;2023-12-20T10:37:36;8.10;99.90
39021;DHT22;25188;51.958;5.842;2023-12-20T10:40:06;8.20;99.90
39021;DHT22;25188;51.958;5.842;2023-12-20T10:42:32;8.20;99.90
39021;DHT22;25188;51.958;5.842;2023-12-20T10:45:00;8.20;99.90
39021;DHT22;25188;51.958;5.842;2023-12-20T10:47:25;8.20;99.90
39021;DHT22;25188;51.958;5.842;2023-12-20T10:49:54;8.30;99.90
39021;DHT22;25188;51.958;5.842;2023-12-20T10:52:23;8.30;99.90
39021;DHT22;25188;51.958;5.842;2023-12-20T10:54:50;8.30;99.90
39021;DHT22;25188;51.958;5.842;2023-12-20T10:57:18;8.30;99.90
39021;DHT22;25188;51.958;5.842;2023-12-20T10:59:45;8.30;99.90
39021;DHT22;25188;51.958;5.842;2023-12-20T11:02:14;8.30;99.90
39021;DHT22;25188;51.958;5.842;2023-12-20T11:07:20;8.30;99.90
39021;DHT22;25188;51.958;5.842;2023-12-20T11:09:59;8.30;99.90
39021;DHT22;25188;51.958;5.842;2023-12-20T11:12:53;8.40;99.90
39021;DHT22;25188;51.958;5.842;2023-12-20T11:15:20;8.40;99.90
39021;DHT22;25188;51.958;5.842;2023-12-20T11:17:47;8.40;99.90
39021;DHT22;25188;51.958;5.842;2023-12-20T11:20:23;8.50;99.90
39021;DHT22;25188;51.958;5.842;2023-12-20T11:22:53;8.50;99.90
39021;DHT22;25188;51.958;5.842;2023-12-20T11:25:19;8.50;99.90
39021;DHT22;25188;51.958;5.842;2023-12-20T11:28:10;8.60;99.90
39021;DHT22;25188;51.958;5.842;2023-12-20T11:30:53;8.60;99.90
39021;DHT22;25188;51.958;5.842;2023-12-20T11:33:30;8.60;99.90
39021;DHT22;25188;51.958;5.842;2023-12-20T11:35:56;8.60;99.90
39021;DHT22;25188;51.958;5.842;2023-12-20T11:38:23;8.70;99.90
39021;DHT22;25188;51.958;5.842;2023-12-20T11:40:50;8.60;99.90
39021;DHT22;25188;51.958;5.842;2023-12-20T11:43:38;8.70;99.90
39021;DHT22;25188;51.958;5.842;2023-12-20T11:46:05;8.70;99.90
39021;DHT22;25188;51.958;5.842;2023-12-20T11:48:32;8.70;99.90
39021;DHT22;25188;51.958;5.842;2023-12-20T11:50:58;8.70;99.90
39021;DHT22;25188;51.958;5.842;2023-12-20T11:53:24;8.70;99.90
39021;DHT22;25188;51.958;5.842;2023-12-20T11:55:50;8.80;99.90
39021;DHT22;25188;51.958;5.842;2023-12-20T11:58:16;8.80;99.90
39021;DHT22;25188;51.958;5.842;2023-12-20T12:00:43;8.90;99.90
39021;DHT22;25188;51.958;5.842;2023-12-20T12:03:09;8.90;99.90
39021;DHT22;25188;51.958;5.842;2023-12-20T12:05:35;9.00;99.90
39021;DHT22;25188;51.958;5.842;2023-12-20T12:08:04;9.00;99.90
39021;DHT22;25188;51.958;5.842;2023-12-20T12:10:31;9.10;99.90
39021;DHT22;25188;51.958;5.842;2023-12-20T12:12:56;9.10;99.90
39021;DHT22;25188;51.958;5.842;2023-12-20T12:15:22;9.20;99.90
39021;DHT22;25188;51.958;5.842;2023-12-20T12:17:55;9.20;99.90
39021;DHT22;25188;51.958;5.842;2023-12-20T12:20:21;9.30;99.90
39021;DHT22;25188;51.958;5.842;2023-12-20T12:23:01;9.30;99.90
39021;DHT22;25188;51.958;5.842;2023-12-20T12:25:28;9.40;99.90
39021;DHT22;25188;51.958;5.842;2023-12-20T12:27:54;9.40;99.90
39021;DHT22;25188;51.958;5.842;2023-12-20T12:30:19;9.50;99.90
39021;DHT22;25188;51.958;5.842;2023-12-20T12:32:45;9.50;99.90
39021;DHT22;25188;51.958;5.842;2023-12-20T12:35:11;9.60;99.90
39021;DHT22;25188;51.958;5.842;2023-12-20T12:37:40;9.60;99.90
39021;DHT22;25188;51.958;5.842;2023-12-20T12:40:10;9.50;99.90
39021;DHT22;25188;51.958;5.842;2023-12-20T12:42:37;9.50;99.90
39021;DHT22;25188;51.958;5.842;2023-12-20T12:45:03;9.50;99.90
39021;DHT22;25188;51.958;5.842;2023-12-20T12:47:30;9.50;99.90
39021;DHT22;25188;51.958;5.842;2023-12-20T12:49:56;9.50;99.90
39021;DHT22;25188;51.958;5.842;2023-12-20T12:52:22;9.40;99.90
39021;DHT22;25188;51.958;5.842;2023-12-20T12:54:48;9.40;99.90
39021;DHT22;25188;51.958;5.842;2023-12-20T12:57:14;9.40;99.90
39021;DHT22;25188;51.958;5.842;2023-12-20T12:59:42;9.40;99.90
39021;DHT22;25188;51.958;5.842;2023-12-20T13:02:08;9.40;99.90
39021;DHT22;25188;51.958;5.842;2023-12-20T13:04:33;9.40;99.90
39021;DHT22;25188;51.958;5.842;2023-12-20T13:06:59;9.30;99.90
39021;DHT22;25188;51.958;5.842;2023-12-20T13:09:25;9.30;99.90
39021;DHT22;25188;51.958;5.842;2023-12-20T13:11:51;9.30;99.90
39021;DHT22;25188;51.958;5.842;2023-12-20T13:14:16;9.30;99.90
39021;DHT22;25188;51.958;5.842;2023-12-20T13:16:42;9.40;99.90
39021;DHT22;25188;51.958;5.842;2023-12-20T13:19:08;9.40;99.90
39021;DHT22;25188;51.958;5.842;2023-12-20T13:21:35;9.40;99.90
39021;DHT22;25188;51.958;5.842;2023-12-20T13:24:01;9.50;99.90
39021;DHT22;25188;51.958;5.842;2023-12-20T13:26:26;9.40;99.90
39021;DHT22;25188;51.958;5.842;2023-12-20T13:28:53;9.50;99.90
39021;DHT22;25188;51.958;5.842;2023-12-20T13:31:19;9.50;99.90
39021;DHT22;25188;51.958;5.842;2023-12-20T13:33:45;9.50;99.90
39021;DHT22;25188;51.958;5.842;2023-12-20T13:36:12;9.50;99.90
39021;DHT22;25188;51.958;5.842;2023-12-20T13:38:38;9.50;99.90
39021;DHT22;25188;51.958;5.842;2023-12-20T13:41:04;9.50;99.90
39021;DHT22;25188;51.958;5.842;2023-12-20T13:43:31;9.40;99.90
39021;DHT22;25188;51.958;5.842;2023-12-20T13:45:58;9.50;99.90
39021;DHT22;25188;51.958;5.842;2023-12-20T13:48:24;9.40;99.90
39021;DHT22;25188;51.958;5.842;2023-12-20T13:50:50;9.40;99.90
39021;DHT22;25188;51.958;5.842;2023-12-20T13:53:16;9.50;99.90
39021;DHT22;25188;51.958;5.842;2023-12-20T13:55:41;9.40;99.90
39021;DHT22;25188;51.958;5.842;2023-12-20T13:58:07;9.40;99.90
39021;DHT22;25188;51.958;5.842;2023-12-20T14:00:33;9.40;99.90
39021;DHT22;25188;51.958;5.842;2023-12-20T14:02:58;9.40;99.90
39021;DHT22;25188;51.958;5.842;2023-12-20T14:05:24;9.50;99.90
39021;DHT22;25188;51.958;5.842;2023-12-20T14:07:50;9.50;99.90
39021;DHT22;25188;51.958;5.842;2023-12-20T14:10:16;9.40;99.90
39021;DHT22;25188;51.958;5.842;2023-12-20T14:12:42;9.50;99.90
39021;DHT22;25188;51.958;5.842;2023-12-20T14:15:07;9.50;99.90
39021;DHT22;25188;51.958;5.842;2023-12-20T14:17:39;9.40;99.90
39021;DHT22;25188;51.958;5.842;2023-12-20T14:20:08;9.50;99.90
39021;DHT22;25188;51.958;5.842;2023-12-20T14:22:35;9.50;99.90
39021;DHT22;25188;51.958;5.842;2023-12-20T14:25:01;9.50;99.90
39021;DHT22;25188;51.958;5.842;2023-12-20T14:27:28;9.50;99.90
39021;DHT22;25188;51.958;5.842;2023-12-20T14:29:54;9.50;99.90
39021;DHT22;25188;51.958;5.842;2023-12-20T14:32:20;9.50;99.90
39021;DHT22;25188;51.958;5.842;2023-12-20T14:34:46;9.50;99.90
39021;DHT22;25188;51.958;5.842;2023-12-20T14:37:12;9.40;99.90
39021;DHT22;25188;51.958;5.842;2023-12-20T14:39:38;9.40;99.90
39021;DHT22;25188;51.958;5.842;2023-12-20T14:42:07;9.40;99.90
39021;DHT22;25188;51.958;5.842;2023-12-20T14:44:37;9.40;99.90
39021;DHT22;25188;51.958;5.842;2023-12-20T14:47:03;9.40;99.90
39021;DHT22;25188;51.958;5.842;2023-12-20T14:49:30;9.40;99.90
39021;DHT22;25188;51.958;5.842;2023-12-20T14:51:55;9.40;99.90
39021;DHT22;25188;51.958;5.842;2023-12-20T14:54:21;9.40;99.90
39021;DHT22;25188;51.958;5.842;2023-12-20T14:56:47;9.40;99.90
39021;DHT22;25188;51.958;5.842;2023-12-20T14:59:13;9.50;99.90
39021;DHT22;25188;51.958;5.842;2023-12-20T15:01:39;9.50;99.90
39021;DHT22;25188;51.958;5.842;2023-12-20T15:04:08;9.40;99.90
39021;DHT22;25188;51.958;5.842;2023-12-20T15:06:34;9.40;99.90
39021;DHT22;25188;51.958;5.842;2023-12-20T15:09:00;9.50;99.90
39021;DHT22;25188;51.958;5.842;2023-12-20T15:11:26;9.40;99.90
39021;DHT22;25188;51.958;5.842;2023-12-20T15:13:52;9.40;99.90
39021;DHT22;25188;51.958;5.842;2023-12-20T15:16:24;9.40;99.90
39021;DHT22;25188;51.958;5.842;2023-12-20T15:18:51;9.40;99.90
39021;DHT22;25188;51.958;5.842;2023-12-20T15:21:17;9.40;99.90
39021;DHT22;25188;51.958;5.842;2023-12-20T15:23:43;9.40;99.90
39021;DHT22;25188;51.958;5.842;2023-12-20T15:26:21;9.40;99.90
39021;DHT22;25188;51.958;5.842;2023-12-20T15:28:47;9.40;99.90
39021;DHT22;25188;51.958;5.842;2023-12-20T15:31:12;9.40;99.90
39021;DHT22;25188;51.958;5.842;2023-12-20T15:33:39;9.40;99.90
39021;DHT22;25188;51.958;5.842;2023-12-20T15:36:05;9.30;99.90
39021;DHT22;25188;51.958;5.842;2023-12-20T15:38:31;9.40;99.90
39021;DHT22;25188;51.958;5.842;2023-12-20T15:40:57;9.30;99.90
39021;DHT22;25188;51.958;5.842;2023-12-20T15:43:22;9.30;99.90